Time;durP1;ratioP1;P1;durP2;ratioP2;P2;SDS_P1;SDS_P2;PMS_P1;PMS_P2;Temp;Humidity;BMP_temperature;BMP_pressure;BME280_temperature;BME280_humidity;BME280_pressure;Samples;Min_cycle;Max_cycle;Signal;HPM_P1;HPM_P2
2020/12/01 00:00:47;;;;;;;17.75;8.98;;;;;;;10.65;57.24;133160.89;1655961;85;21252;-77
2020/12/01 00:03:20;;;;;;;17.23;8.95;;;;;;;10.67;57.24;132757.16;1713702;83;21254;-77
2020/12/01 00:05:52;;;;;;;15.25;8.38;;;;;;;10.69;57.29;131659.42;1706345;83;21244;-77
2020/12/01 00:11:50;;;;;;;16.80;9.40;;;;;;;10.64;57.41;129824.17;1677021;85;21320;-79
2020/12/01 00:14:22;;;;;;;16.80;8.53;;;;;;;10.63;57.43;129512.37;1647988;87;21238;-77
2020/12/01 00:16:55;;;;;;;16.65;9.33;;;;;;;10.60;57.43;129168.16;1674523;85;21209;-77
2020/12/01 00:19:27;;;;;;;18.32;9.70;;;;;;;10.62;57.38;130405.29;1677179;85;21292;-77
2020/12/01 00:21:59;;;;;;;17.52;8.95;;;;;;;10.62;57.48;128850.41;1677084;85;21237;-77
2020/12/01 00:24:31;;;;;;;18.12;9.80;;;;;;;10.66;57.35;130973.17;1676800;85;21229;-76
2020/12/01 00:27:04;;;;;;;20.00;9.88;;;;;;;10.70;57.41;130264.39;1676871;85;21240;-76
2020/12/01 00:29:36;;;;;;;17.20;9.15;;;;;;;10.71;57.42;130060.00;1676813;85;21539;-76
2020/12/01 00:32:08;;;;;;;18.87;9.63;;;;;;;10.70;57.43;129579.88;1676962;85;22003;-77
2020/12/01 00:34:40;;;;;;;18.70;9.43;;;;;;;10.70;57.49;128631.42;1676956;84;21222;-76
2020/12/01 00:37:13;;;;;;;16.67;8.33;;;;;;;10.70;57.56;127231.19;1648034;87;21283;-76
2020/12/01 00:39:45;;;;;;;23.52;9.30;;;;;;;10.74;57.50;128292.94;1676677;85;21257;-77
2020/12/01 00:42:17;;;;;;;21.95;10.10;;;;;;;10.76;57.63;126139.14;1648090;87;21226;-78
2020/12/01 00:44:49;;;;;;;27.45;10.38;;;;;;;10.75;57.60;126406.69;1677014;85;21225;-77
2020/12/01 00:47:22;;;;;;;27.32;11.53;;;;;;;10.69;57.61;126496.94;1676894;85;21214;-77
2020/12/01 00:49:54;;;;;;;24.07;11.53;;;;;;;10.65;57.64;126262.68;1676895;85;21237;-79
2020/12/01 00:52:26;;;;;;;23.38;11.33;;;;;;;10.61;57.69;124797.56;1676931;85;21246;-78
2020/12/01 00:54:58;;;;;;;25.62;13.08;;;;;;;10.58;57.76;123009.59;1676882;85;21694;-78
2020/12/01 00:57:31;;;;;;;27.80;12.50;;;;;;;10.48;57.98;117873.80;1676466;85;21769;-78
2020/12/01 01:00:10;;;;;;;21.77;11.12;;;;;;;10.46;58.08;115628.94;1673476;85;21253;-77
2020/12/01 01:03:00;;;;;;;27.13;12.23;;;;;;;10.48;58.06;116207.44;1665143;85;21768;-78
2020/12/01 01:05:33;;;;;;;26.97;14.13;;;;;;;10.45;58.17;113791.05;1660685;85;21731;-78
2020/12/01 01:08:05;;;;;;;20.62;10.75;;;;;;;10.41;58.27;111347.67;1662814;85;21244;-78
2020/12/01 01:10:39;;;;;;;22.77;11.97;;;;;;;10.41;58.34;110040.54;1652074;86;21228;-79
2020/12/01 01:13:12;;;;;;;24.80;11.40;;;;;;;10.43;58.38;108998.13;1677948;84;21312;-77
2020/12/01 01:15:44;;;;;;;21.60;10.72;;;;;;;10.44;58.44;108050.34;1662688;85;22107;-77
2020/12/01 01:18:17;;;;;;;25.27;12.50;;;;;;;10.49;58.45;107743.94;1650699;86;21252;-78
2020/12/01 01:20:49;;;;;;;27.55;12.75;;;;;;;10.55;58.33;111223.54;1682372;84;22074;-78
2020/12/01 01:23:21;;;;;;;24.45;11.73;;;;;;;10.58;58.34;111494.04;1662154;85;21756;-78
2020/12/01 01:25:54;;;;;;;21.60;11.55;;;;;;;10.55;58.27;112861.10;1661616;85;21244;-77
2020/12/01 01:28:26;;;;;;;24.15;11.48;;;;;;;10.55;58.24;114084.58;1660105;85;21236;-77
2020/12/01 01:30:58;;;;;;;23.45;11.03;;;;;;;10.58;58.17;115541.50;1657160;86;21221;-77
2020/12/01 01:33:30;;;;;;;22.05;10.82;;;;;;;10.56;58.22;114469.00;1688424;84;21721;-78
2020/12/01 01:36:02;;;;;;;22.15;10.58;;;;;;;10.53;58.19;115313.20;1676847;85;21720;-77
2020/12/01 01:38:35;;;;;;;20.82;10.43;;;;;;;10.52;58.24;114156.91;1663079;85;21751;-77
2020/12/01 01:41:08;;;;;;;22.35;10.00;;;;;;;10.51;58.23;114525.45;1709169;83;21260;-78
2020/12/01 01:43:40;;;;;;;22.15;10.23;;;;;;;10.51;58.26;113676.98;1710720;83;21304;-78
2020/12/01 01:46:36;;;;;;;18.62;10.03;;;;;;;10.52;58.32;112927.95;1712874;83;21733;-78
2020/12/01 01:49:14;;;;;;;20.32;9.93;;;;;;;10.54;58.31;112953.73;1695930;83;21244;-78
2020/12/01 01:51:51;;;;;;;20.60;10.78;;;;;;;10.50;58.29;113559.55;1710395;83;22075;-76
2020/12/01 01:54:24;;;;;;;18.45;9.53;;;;;;;10.49;58.41;110720.55;1707843;83;21226;-76
2020/12/01 01:56:58;;;;;;;23.47;8.98;;;;;;;10.53;58.40;110869.58;1707838;83;21379;-77
2020/12/01 01:59:31;;;;;;;15.78;8.68;;;;;;;10.56;58.35;112512.25;1710568;83;21291;-77
2020/12/01 02:02:04;;;;;;;19.10;9.53;;;;;;;10.57;58.25;115182.98;1676801;84;21225;-77
2020/12/01 02:04:36;;;;;;;16.82;8.98;;;;;;;10.54;58.19;116368.45;1675978;84;21317;-77
2020/12/01 02:07:08;;;;;;;19.40;10.10;;;;;;;10.49;58.23;115494.59;1675353;85;21308;-77
2020/12/01 02:09:50;;;;;;;18.45;9.23;;;;;;;10.41;58.37;112192.70;1708563;83;21241;-77
2020/12/01 02:12:22;;;;;;;17.80;9.68;;;;;;;10.39;58.40;111304.16;1707307;83;21359;-77
2020/12/01 02:15:00;;;;;;;16.82;8.78;;;;;;;10.40;58.50;109394.94;1692884;84;21296;-77
2020/12/01 02:17:34;;;;;;;18.92;10.10;;;;;;;10.39;58.56;108130.52;1676054;84;21237;-77
2020/12/01 02:20:16;;;;;;;16.20;9.38;;;;;;;10.39;58.58;107384.55;1638481;86;21823;-77
2020/12/01 02:22:51;;;;;;;17.25;8.93;;;;;;;10.35;58.67;105605.10;1660670;86;21551;-78
2020/12/01 02:25:23;;;;;;;17.67;9.48;;;;;;;10.34;58.72;104230.23;1706477;83;21292;-77
2020/12/01 02:27:57;;;;;;;19.02;10.98;;;;;;;10.34;58.78;102464.71;1678513;84;21237;-76
2020/12/01 02:30:29;;;;;;;20.95;10.23;;;;;;;10.36;58.87;100435.59;1659085;85;21245;-77
2020/12/01 02:33:01;;;;;;;18.80;9.65;;;;;;;10.39;58.88;100588.17;1671030;85;21522;-77
2020/12/01 02:35:33;;;;;;;20.90;10.13;;;;;;;10.39;58.93;99439.78;1644799;86;21261;-77
2020/12/01 02:38:06;;;;;;;18.70;9.83;;;;;;;10.41;58.97;98950.55;1683588;84;21301;-78
2020/12/01 02:40:38;;;;;;;20.80;10.85;;;;;;;10.40;59.00;98439.92;1679322;84;21244;-77
2020/12/01 02:43:12;;;;;;;17.37;9.40;;;;;;;10.42;58.99;98724.87;1710730;83;21281;-77
2020/12/01 02:45:44;;;;;;;20.30;10.65;;;;;;;10.47;59.10;95458.47;1679861;84;21249;-77
2020/12/01 02:48:16;;;;;;;18.77;9.48;;;;;;;10.50;59.02;98750.10;1685496;84;21567;-77
2020/12/01 02:50:48;;;;;;;19.17;10.18;;;;;;;10.53;59.05;97732.27;1683180;84;21288;-76
2020/12/01 02:53:20;;;;;;;20.62;11.03;;;;;;;10.53;59.14;95466.30;1677545;85;21245;-77
2020/12/01 02:55:52;;;;;;;22.25;10.53;;;;;;;10.59;59.10;96779.11;1664002;85;21872;-78
2020/12/01 02:58:24;;;;;;;20.92;10.80;;;;;;;10.61;59.09;97700.06;1662593;85;21317;-77
2020/12/01 03:00:57;;;;;;;21.12;10.90;;;;;;;10.60;59.06;98503.53;1662397;85;21225;-77
2020/12/01 03:03:29;;;;;;;18.92;10.45;;;;;;;10.57;59.12;96691.23;1651186;86;21307;-76
2020/12/01 03:06:03;;;;;;;21.85;10.80;;;;;;;10.59;59.16;95547.00;1677729;85;21308;-77
2020/12/01 03:08:35;;;;;;;18.62;10.50;;;;;;;10.61;59.18;96184.42;1679274;84;22010;-77
2020/12/01 03:11:07;;;;;;;20.68;10.58;;;;;;;10.61;59.21;95013.02;1658136;86;21545;-77
2020/12/01 03:13:40;;;;;;;21.75;10.90;;;;;;;10.60;59.27;93625.06;1662372;85;21772;-77
2020/12/01 03:16:12;;;;;;;20.62;10.08;;;;;;;10.58;59.23;94960.44;1655694;85;21225;-77
2020/12/01 03:18:46;;;;;;;20.40;11.15;;;;;;;10.57;59.24;94847.59;1670799;85;21498;-75
2020/12/01 03:21:18;;;;;;;19.65;9.58;;;;;;;10.58;59.18;96759.17;1660929;85;21341;-76
2020/12/01 03:23:50;;;;;;;17.20;9.20;;;;;;;10.58;59.25;95226.86;1665750;86;21255;-75
2020/12/01 03:26:22;;;;;;;20.37;9.48;;;;;;;10.63;59.25;95481.78;1678091;84;21472;-76
2020/12/01 03:28:54;;;;;;;18.77;11.12;;;;;;;10.63;59.20;96969.86;1677019;85;21725;-76
2020/12/01 03:31:27;;;;;;;17.80;9.90;;;;;;;10.63;59.19;97405.94;1676407;85;21281;-77
2020/12/01 03:33:59;;;;;;;18.45;9.53;;;;;;;10.65;59.14;98779.44;1648096;87;21202;-76
2020/12/01 03:36:31;;;;;;;17.12;8.98;;;;;;;10.68;59.04;101771.23;1676671;85;21293;-76
2020/12/01 03:39:04;;;;;;;17.17;9.98;;;;;;;10.66;59.06;101255.98;1647832;87;21403;-76
2020/12/01 03:41:36;;;;;;;18.07;8.95;;;;;;;10.72;59.01;102573.97;1676642;85;21265;-76
2020/12/01 03:44:08;;;;;;;16.40;9.33;;;;;;;10.69;58.88;106272.80;1676817;85;22029;-76
2020/12/01 03:46:40;;;;;;;16.75;9.35;;;;;;;10.66;58.80;108315.34;1676939;85;21444;-77
2020/12/01 03:49:13;;;;;;;15.90;8.68;;;;;;;10.62;58.89;105542.95;1647769;87;21327;-76
2020/12/01 03:51:45;;;;;;;18.17;9.08;;;;;;;10.61;58.90;105345.59;1676449;85;21241;-76
2020/12/01 03:54:17;;;;;;;18.00;8.58;;;;;;;10.59;58.89;105354.30;1676403;85;21229;-76
2020/12/01 03:56:50;;;;;;;16.30;8.50;;;;;;;10.58;58.96;103977.62;1677008;84;22031;-76
2020/12/01 03:59:23;;;;;;;16.67;8.75;;;;;;;10.57;58.99;103120.30;1676816;85;21194;-76
2020/12/01 04:01:55;;;;;;;16.77;9.10;;;;;;;10.58;58.98;103438.61;1672827;85;22048;-76
2020/12/01 04:04:29;;;;;;;17.23;9.10;;;;;;;10.58;59.03;101884.17;1676920;85;21221;-75
2020/12/01 04:07:01;;;;;;;13.98;8.48;;;;;;;10.59;59.03;102116.28;1676877;85;21222;-76
2020/12/01 04:09:34;;;;;;;16.02;8.55;;;;;;;10.60;59.01;102475.10;1648023;87;21302;-76
2020/12/01 04:12:06;;;;;;;15.30;8.43;;;;;;;10.62;59.08;101341.95;1677475;85;21265;-76
2020/12/01 04:14:38;;;;;;;16.00;9.15;;;;;;;10.59;58.96;104389.50;1648084;87;21226;-76
2020/12/01 04:17:11;;;;;;;16.30;8.83;;;;;;;10.59;59.01;103029.02;1676916;85;21269;-76
2020/12/01 04:19:43;;;;;;;15.98;8.65;;;;;;;10.60;59.03;102279.72;1676929;85;21265;-77
2020/12/01 04:22:15;;;;;;;18.32;8.95;;;;;;;10.60;59.12;100212.67;1676855;85;21284;-77
2020/12/01 04:24:48;;;;;;;15.00;8.45;;;;;;;10.62;59.17;99162.58;1676568;85;21222;-76
2020/12/01 04:27:20;;;;;;;16.77;8.50;;;;;;;10.61;61.36;46301.61;1647377;87;21203;-77
2020/12/01 04:29:52;;;;;;;16.40;8.50;;;;;;;10.56;61.45;45922.61;1681050;85;21480;-77
2020/12/01 04:32:24;;;;;;;15.95;8.45;;;;;;;10.59;60.12;76841.88;1656001;86;21280;-77
2020/12/01 04:34:57;;;;;;;16.15;8.45;;;;;;;10.56;61.84;41476.86;1715873;83;22149;-77
2020/12/01 04:37:29;;;;;;;19.07;8.73;;;;;;;10.54;60.76;62990.74;1716146;83;21670;-77
2020/12/01 04:40:02;;;;;;;21.87;10.13;;;;;;;10.57;60.39;72463.51;1676992;85;21716;-76
2020/12/01 04:42:34;;;;;;;27.82;11.20;;;;;;;10.60;60.17;77810.31;1676972;85;21236;-77
2020/12/01 04:45:12;;;;;;;22.20;10.30;;;;;;;10.54;62.07;38674.64;1676975;85;21753;-77
2020/12/01 04:48:00;;;;;;;20.12;9.85;;;;;;;10.52;62.55;32798.53;1662788;84;21237;-78
2020/12/01 04:50:39;;;;;;;20.00;9.95;;;;;;;10.46;63.23;25173.57;1648158;87;22206;-66
2020/12/01 04:54:04;;;;;;;19.40;9.48;;;;;;;10.44;64.38;13717.80;1647039;86;21206;-70
2020/12/01 04:57:01;;;;;;;15.08;7.90;;;;;;;10.46;62.35;43892.60;1602297;89;21250;-63
2020/12/01 05:03:16;;;;;;;15.90;7.47;;;;;;;10.39;64.05;20024.17;1598897;89;21266;-66
2020/12/01 05:06:30;;;;;;;12.18;7.00;;;;;;;10.36;64.55;17635.02;1576847;90;21273;-66
2020/12/01 05:09:06;;;;;;;17.45;7.85;;;;;;;10.40;64.16;24307.04;1649524;84;22109;-68
2020/12/01 05:11:58;;;;;;;13.60;6.75;;;;;;;10.37;62.40;52418.38;1680677;84;21260;-71
2020/12/01 05:14:38;;;;;;;17.10;7.80;;;;;;;10.34;61.95;60068.22;1711155;83;21396;-67
2020/12/01 05:17:52;;;;;;;13.55;7.45;;;;;;;10.22;64.99;15074.41;1681637;84;21408;-66
2020/12/01 05:20:25;;;;;;;13.28;6.80;;;;;;;10.14;66.36;8266.27;1673327;85;21320;-69
2020/12/01 05:22:59;;;;;;;11.70;7.08;;;;;;;10.17;67.72;3001.62;1673975;85;21305;-66
2020/12/01 05:25:32;;;;;;;12.70;7.35;;;;;;;10.19;69.23;1135.54;1640371;86;21280;-67
2020/12/01 05:28:19;;;;;;;11.33;6.65;;;;;;;10.23;67.39;22450.38;1673652;85;21601;-66
2020/12/01 05:31:04;;;;;;;13.20;7.25;;;;;;;10.24;66.75;29610.08;1671834;85;21332;-66
2020/12/01 05:33:37;;;;;;;12.80;6.53;;;;;;;10.26;67.16;25842.35;1674137;85;22138;-66
2020/12/01 05:36:26;;;;;;;14.18;7.62;;;;;;;10.25;64.69;59194.92;1675412;83;21202;-66
2020/12/01 05:39:06;;;;;;;15.65;7.65;;;;;;;10.27;63.54;75454.00;1677881;84;21296;-69
2020/12/01 05:41:38;;;;;;;15.38;7.45;;;;;;;10.30;65.44;40134.49;1662268;85;21969;-62
2020/12/01 05:44:24;;;;;;;13.90;8.13;;;;;;;10.35;66.32;30811.32;1664963;85;22090;-64
2020/12/01 05:47:09;;;;;;;14.68;7.15;;;;;;;10.44;65.07;50376.42;1703905;83;21312;-63
2020/12/01 05:50:10;;;;;;;18.60;8.28;;;;;;;10.47;63.27;82469.49;1676278;85;21257;-64
2020/12/01 05:52:56;;;;;;;16.00;8.40;;;;;;;10.47;62.65;90528.95;1659047;85;21257;-64
2020/12/01 05:56:00;;;;;;;15.32;7.35;;;;;;;10.53;62.85;82381.50;1655475;85;22018;-63
2020/12/01 05:59:08;;;;;;;14.50;7.12;;;;;;;10.58;62.64;85451.06;1652767;84;21234;-63
2020/12/01 06:02:08;;;;;;;13.75;7.83;;;;;;;10.70;62.63;84175.58;1679482;85;21375;-63
2020/12/01 06:05:12;;;;;;;13.53;7.00;;;;;;;10.73;61.65;103961.80;1664181;83;22047;-61
2020/12/01 06:07:54;;;;;;;12.63;6.58;;;;;;;10.70;62.08;91474.97;1705443;83;21313;-63
2020/12/01 06:10:49;;;;;;;13.22;6.08;;;;;;;10.68;61.40;105394.19;1676738;84;21979;-62
2020/12/01 06:13:42;;;;;;;13.13;7.05;;;;;;;10.69;61.63;98851.72;1686683;84;21569;-63
2020/12/01 06:16:41;;;;;;;12.30;6.87;;;;;;;10.63;61.60;98474.45;1653442;85;21493;-61
2020/12/01 06:19:27;;;;;;;11.18;6.35;;;;;;;10.56;69.60;153886.69;1664525;85;21240;-62
2020/12/01 06:22:21;;;;;;;15.90;8.03;;;;;;;10.60;67.29;145964.83;1655598;85;21268;-66
2020/12/01 06:25:36;;;;;;;17.65;7.50;;;;;;;10.51;73.40;151528.97;1654003;86;21276;-66
2020/12/01 06:28:34;;;;;;;11.53;6.62;;;;;;;10.51;71.96;152110.75;1706752;83;21901;-66
2020/12/01 06:31:23;;;;;;;13.32;7.17;;;;;;;10.48;68.93;153487.27;1675104;84;21488;-65
2020/12/01 06:34:45;;;;;;;13.72;6.60;;;;;;;10.44;66.82;153174.69;1660690;85;22070;-64
2020/12/01 06:37:38;;;;;;;;;;;;;;;10.48;67.11;146771.83;1669814;85;21512;-63
2020/12/01 06:40:24;;;;;;;13.60;7.22;;;;;;;10.30;70.61;153818.53;1705065;83;20379;-63
2020/12/01 06:43:11;;;;;;;14.25;6.62;;;;;;;10.27;70.74;152486.28;1709750;83;21483;-63
2020/12/01 06:45:47;;;;;;;10.78;5.97;;;;;;;10.29;73.52;153815.91;1669858;84;21230;-64
2020/12/01 06:48:23;;;;;;;12.10;6.08;;;;;;;10.28;74.42;153813.28;1685659;84;21492;-64
2020/12/01 06:51:00;;;;;;;11.65;6.15;;;;;;;10.38;72.35;153839.48;1650178;86;21476;-64
2020/12/01 06:53:38;;;;;;;12.80;6.20;;;;;;;10.40;72.37;153846.08;1707788;83;21241;-63
2020/12/01 06:56:17;;;;;;;9.73;5.85;;;;;;;10.17;99.96;153785.80;1676794;84;21256;-63
2020/12/01 06:58:51;;;;;;;12.43;6.45;;;;;;;10.27;90.54;153810.66;1657780;84;21625;-64
2020/12/01 07:01:32;;;;;;;10.20;5.53;;;;;;;10.33;90.28;153827.69;1704279;83;21233;-64
2020/12/01 07:04:20;;;;;;;11.38;6.08;;;;;;;10.40;88.32;153844.73;1683108;84;21490;-64
2020/12/01 07:06:59;;;;;;;9.28;5.95;;;;;;;10.43;84.03;153853.91;1687416;84;21303;-64
2020/12/01 07:09:43;;;;;;;10.20;6.15;;;;;;;10.49;80.58;153869.66;1675551;84;21269;-64
2020/12/01 07:12:36;;;;;;;24.98;12.98;;;;;;;10.37;82.94;153836.86;1672764;85;21522;-64
2020/12/01 07:15:18;;;;;;;14.33;7.50;;;;;;;10.45;82.37;153859.16;1674910;85;21463;-64
2020/12/01 07:18:01;;;;;;;16.20;7.22;;;;;;;10.47;84.68;153863.13;1647884;86;21540;-64
2020/12/01 07:21:03;;;;;;;13.15;6.67;;;;;;;10.52;80.92;153876.19;1674001;85;21613;-64
2020/12/01 07:23:54;;;;;;;11.45;5.50;;;;;;;10.65;80.06;153911.56;1674942;85;21452;-64
2020/12/01 07:26:49;;;;;;;14.07;6.55;;;;;;;10.47;77.43;153864.41;1667017;85;21342;-64
2020/12/01 07:29:30;;;;;;;13.43;6.05;;;;;;;10.56;75.25;153887.98;1661082;85;22118;-64
2020/12/01 07:32:18;;;;;;;10.00;5.75;;;;;;;10.60;75.02;153898.48;1675074;85;21457;-65
2020/12/01 07:34:56;;;;;;;9.58;5.60;;;;;;;10.49;78.79;153869.66;1682922;84;22057;-64
2020/12/01 07:38:10;;;;;;;14.40;6.72;;;;;;;10.55;73.79;153884.06;1654800;85;21210;-64
2020/12/01 07:40:51;;;;;;;13.62;6.58;;;;;;;10.62;72.61;153902.41;1672160;84;22099;-64
2020/12/01 07:43:24;;;;;;;11.08;5.85;;;;;;;10.65;71.46;153910.28;1701377;83;21249;-64
2020/12/01 07:46:02;;;;;;;20.00;7.30;;;;;;;10.65;70.52;153911.56;1705651;83;21510;-64
2020/12/01 07:48:34;;;;;;;19.75;7.53;;;;;;;10.81;71.60;153953.53;1702960;83;21524;-64
2020/12/01 07:51:09;;;;;;;9.73;4.53;;;;;;;10.90;71.47;153977.12;1687461;83;21260;-64
2020/12/01 07:53:43;;;;;;;22.58;8.85;;;;;;;10.88;69.15;153973.22;1706667;84;21296;-65
2020/12/01 07:56:15;;;;;;;18.95;8.00;;;;;;;11.02;69.86;154008.59;1702302;84;21241;-63
2020/12/01 07:59:09;;;;;;;10.82;5.45;;;;;;;11.13;69.44;154037.44;1704663;83;22027;-64
2020/12/01 08:01:35;;;;;;;12.05;6.37;;;;;;;11.18;68.07;154051.88;1680658;83;21241;-64
2020/12/01 08:04:15;;;;;;;12.10;5.55;;;;;;;11.36;70.03;154097.77;1689514;84;21234;-64
2020/12/01 08:07:02;;;;;;;13.98;5.53;;;;;;;11.34;69.38;154093.84;1704402;83;21559;-63
2020/12/01 08:09:33;;;;;;;11.45;5.58;;;;;;;11.43;68.11;154117.45;1706200;83;22055;-64
2020/12/01 08:12:10;;;;;;;15.75;7.08;;;;;;;11.32;65.86;154088.59;1683654;83;22031;-64
2020/12/01 08:14:51;;;;;;;13.53;5.58;;;;;;;11.43;67.46;154117.45;1697358;83;21297;-64
2020/12/01 08:17:28;;;;;;;12.75;5.65;;;;;;;11.49;65.41;154131.87;1667330;84;21519;-64
2020/12/01 08:20:01;;;;;;;10.40;4.95;;;;;;;11.47;69.19;154127.97;1713428;83;21532;-64
2020/12/01 08:22:40;;;;;;;11.25;4.87;;;;;;;11.56;67.05;154151.63;1663317;84;21242;-64
2020/12/01 08:25:15;;;;;;;11.03;5.22;;;;;;;11.41;73.57;153216.95;1685869;83;21224;-65
2020/12/01 08:28:26;;;;;;;11.60;5.35;;;;;;;11.36;68.71;154097.77;1699637;83;21250;-65
2020/12/01 08:31:21;;;;;;;12.30;5.92;;;;;;;11.32;70.67;154087.31;1708490;83;21234;-64
2020/12/01 08:37:50;;;;;;;7.70;4.33;;;;;;;11.53;69.19;154143.73;1671874;85;21205;-63
2020/12/01 08:40:47;;;;;;;9.63;5.12;;;;;;;11.42;64.78;154114.83;1648157;84;21253;-62
2020/12/01 08:43:33;;;;;;;14.43;6.15;;;;;;;11.50;66.38;154135.84;1672371;84;21264;-62
2020/12/01 08:46:14;;;;;;;7.37;4.35;;;;;;;11.58;67.20;153613.94;1672440;85;21423;-63
2020/12/01 08:48:51;;;;;;;8.05;4.30;;;;;;;11.36;67.12;154097.77;1691687;82;21214;-62
2020/12/01 08:51:33;;;;;;;7.00;3.95;;;;;;;11.39;63.45;154107.00;1651238;86;22001;-63
2020/12/01 08:54:17;;;;;;;8.80;4.60;;;;;;;11.47;63.41;154126.63;1647435;86;21998;-63
2020/12/01 08:57:07;;;;;;;9.13;5.05;;;;;;;11.43;63.42;154117.45;1647486;84;21233;-65
2020/12/01 09:00:14;;;;;;;10.15;4.45;;;;;;;11.40;64.87;151589.33;1659961;86;21215;-66
2020/12/01 09:02:52;;;;;;;8.15;4.15;;;;;;;11.32;63.46;154088.59;1705207;83;21440;-63
2020/12/01 09:05:31;;;;;;;7.08;4.33;;;;;;;11.56;68.16;132741.50;1704285;83;22055;-65
2020/12/01 09:08:37;;;;;;;7.12;4.92;;;;;;;11.61;68.18;130942.09;1660817;85;21238;-62
2020/12/01 09:17:12;;;;;;;6.78;3.90;;;;;;;11.64;65.62;144587.03;1702747;83;21970;-64
2020/12/01 09:19:58;;;;;;;7.58;4.45;;;;;;;18.97;53.58;156111.94;1695424;83;21245;-64
2020/12/01 09:22:30;;;;;;;10.68;3.75;;;;;;;18.88;52.47;156088.13;1712722;83;21409;-64
2020/12/01 09:25:23;;;;;;;6.30;3.87;;;;;;;20.17;45.88;156433.09;1711780;83;21404;-63
2020/12/01 09:27:58;;;;;;;6.72;4.42;;;;;;;17.23;51.40;155652.62;1712345;83;21237;-63
2020/12/01 09:30:35;;;;;;;7.95;5.08;;;;;;;16.73;57.28;155519.42;1711452;83;21430;-63
2020/12/01 09:33:13;;;;;;;9.88;4.42;;;;;;;16.68;58.68;155504.92;1709281;83;21455;-63
2020/12/01 09:35:49;;;;;;;8.35;3.98;;;;;;;16.35;62.59;155417.97;1711498;83;21413;-65
2020/12/01 09:38:22;;;;;;;4.60;3.20;;;;;;;16.61;57.86;155486.50;1706836;83;22071;-63
2020/12/01 09:40:56;;;;;;;7.33;3.42;;;;;;;16.80;53.67;155536.56;1704547;83;21232;-63
2020/12/01 09:43:35;;;;;;;5.72;3.50;;;;;;;16.27;53.33;155396.84;1712198;83;21535;-63
2020/12/01 09:46:12;;;;;;;5.53;3.75;;;;;;;16.26;53.18;155394.20;1706178;83;21491;-62
2020/12/01 09:48:47;;;;;;;10.60;4.80;;;;;;;16.55;54.15;155470.72;1712369;83;21944;-64
2020/12/01 09:51:16;;;;;;;5.83;3.20;;;;;;;16.61;55.00;155487.78;1708341;83;21244;-62
2020/12/01 09:59:35;;;;;;;6.20;3.50;;;;;;;15.91;56.15;155302.00;1704537;82;21249;-65
2020/12/01 10:05:15;;;;;;;7.40;3.45;;;;;;;15.68;62.41;155240.13;1699337;83;21611;-62
2020/12/01 10:10:25;;;;;;;6.87;3.42;;;;;;;15.51;63.24;155196.63;1706077;83;20232;-62
2020/12/01 10:13:06;;;;;;;7.30;3.87;;;;;;;15.65;59.58;155232.22;1674540;85;21261;-62
2020/12/01 10:15:52;;;;;;;6.25;3.77;;;;;;;15.81;58.75;155274.31;1671364;85;22080;-63
2020/12/01 10:26:56;;;;;;;8.03;3.60;;;;;;;15.43;61.43;155174.28;1674487;84;21376;-63
2020/12/01 10:32:24;;;;;;;8.78;4.67;;;;;;;14.83;64.70;155016.28;1654236;85;21256;-63
2020/12/01 10:34:51;;;;;;;8.10;3.92;;;;;;;15.09;57.79;155083.38;1676588;85;21285;-61
2020/12/01 10:37:21;;;;;;;7.75;3.75;;;;;;;15.19;56.26;155111.03;1705186;83;21304;-63
2020/12/01 10:39:54;;;;;;;7.05;4.08;;;;;;;15.41;60.51;155170.30;1670790;85;21237;-63
2020/12/01 10:42:27;;;;;;;5.83;3.90;;;;;;;15.29;59.96;155136.06;1674742;85;21389;-62
2020/12/01 10:48:38;;;;;;;6.17;3.83;;;;;;;16.47;100.00;155450.94;1674482;85;21257;-63
2020/12/01 10:51:11;;;;;;;8.53;4.45;;;;;;;14.61;78.13;154958.41;1653581;85;21213;-63
2020/12/01 10:53:44;;;;;;;8.78;3.55;;;;;;;14.70;78.26;154982.06;1684680;84;22165;-63
2020/12/01 10:56:18;;;;;;;6.58;4.28;;;;;;;14.94;74.73;155045.22;1681107;84;21935;-66
2020/12/01 10:58:51;;;;;;;7.62;3.52;;;;;;;15.30;69.79;155140.05;1678655;84;21321;-66
2020/12/01 11:05:29;;;;;;;6.25;3.47;;;;;;;15.31;71.03;129184.11;1661449;83;21977;-65
2020/12/01 11:08:03;;;;;;;5.47;3.40;;;;;;;14.72;69.40;139311.47;1683058;85;21269;-63
2020/12/01 11:10:36;;;;;;;6.37;3.45;;;;;;;14.28;96.11;154868.95;1679167;83;21276;-65
2020/12/01 11:13:09;;;;;;;5.78;3.52;;;;;;;14.03;100.00;154804.44;1705128;83;21467;-65
2020/12/01 11:15:42;;;;;;;7.58;4.22;;;;;;;13.91;100.00;154771.59;1680540;84;22033;-65
2020/12/01 11:18:14;;;;;;;6.70;3.95;;;;;;;14.17;100.00;154841.31;1660868;85;21260;-66
2020/12/01 11:20:46;;;;;;;7.87;4.00;;;;;;;14.37;93.78;154892.62;1658528;85;21240;-66
2020/12/01 11:23:19;;;;;;;7.62;4.20;;;;;;;14.09;89.64;154818.91;1654413;85;21493;-64
2020/12/01 11:25:52;;;;;;;5.60;3.72;;;;;;;15.79;80.96;155269.09;1705662;83;21244;-64
2020/12/01 11:28:25;;;;;;;6.30;4.20;;;;;;;14.35;87.33;154887.34;1707157;83;21240;-65
2020/12/01 11:30:59;;;;;;;7.40;3.47;;;;;;;14.31;82.56;154876.81;1679708;84;21233;-63
2020/12/01 11:33:33;;;;;;;7.35;3.50;;;;;;;14.26;82.91;154864.97;1682245;85;21472;-64
2020/12/01 11:36:06;;;;;;;6.80;4.00;;;;;;;13.99;83.69;154792.61;1646661;85;22099;-64
2020/12/01 11:42:05;;;;;;;7.37;4.47;;;;;;;13.92;81.40;154774.22;1707761;83;21360;-63
2020/12/01 11:44:38;;;;;;;8.03;4.50;;;;;;;14.15;74.72;154834.75;1707692;83;21253;-63
2020/12/01 11:47:10;;;;;;;7.70;3.83;;;;;;;14.07;72.91;154813.63;1687684;84;21406;-62
2020/12/01 12:00:06;;;;;;;9.65;4.37;;;;;;;14.01;84.78;154799.16;1675944;85;22101;-65
2020/12/01 12:02:41;;;;;;;7.80;3.72;;;;;;;14.23;77.53;154857.13;1661555;85;21309;-65
2020/12/01 12:05:14;;;;;;;6.70;3.90;;;;;;;13.98;78.15;154791.31;1665575;85;21250;-65
2020/12/01 12:07:46;;;;;;;16.15;5.53;;;;;;;14.10;76.60;154822.87;1664310;85;21255;-68
2020/12/01 12:10:19;;;;;;;13.48;5.87;;;;;;;14.08;75.59;154817.61;1707079;83;21333;-63
2020/12/01 12:12:51;;;;;;;17.17;6.05;;;;;;;14.22;73.15;154853.16;1709283;83;21289;-64
2020/12/01 12:15:24;;;;;;;13.68;6.37;;;;;;;14.11;71.24;154825.50;1706086;83;21245;-65
2020/12/01 12:17:57;;;;;;;14.10;6.80;;;;;;;14.25;71.71;153648.92;1710162;82;21484;-66
2020/12/01 12:20:30;;;;;;;18.25;6.78;;;;;;;14.24;71.55;148675.08;1687094;84;21237;-65
2020/12/01 12:23:02;;;;;;;13.48;5.47;;;;;;;14.23;71.46;142660.17;1675783;85;21244;-65
2020/12/01 12:25:34;;;;;;;7.75;3.92;;;;;;;14.18;70.49;142759.25;1676836;85;21349;-68
2020/12/01 12:28:06;;;;;;;6.33;3.60;;;;;;;14.17;71.07;132786.47;1678015;84;21620;-63
2020/12/01 12:30:39;;;;;;;7.62;3.67;;;;;;;14.37;100.00;154892.62;1655268;84;21357;-64
2020/12/01 12:33:11;;;;;;;6.25;3.60;;;;;;;14.28;88.11;154870.25;1667431;85;21280;-64
2020/12/01 12:35:44;;;;;;;7.40;4.12;;;;;;;13.73;100.00;154725.58;1676739;84;21225;-63
2020/12/01 12:38:17;;;;;;;6.00;3.92;;;;;;;24.65;100.00;157625.31;1663536;85;21214;-64
2020/12/01 12:40:51;;;;;;;5.87;3.40;;;;;;;24.34;53.16;157543.03;1677041;85;21547;-63
2020/12/01 12:43:24;;;;;;;9.58;4.33;;;;;;;24.51;52.56;157586.86;1681584;84;21252;-63
2020/12/01 12:46:13;;;;;;;10.50;4.87;;;;;;;24.03;52.20;157460.77;1654106;84;21257;-63
2020/12/01 12:48:47;;;;;;;11.88;6.70;;;;;;;24.54;46.40;157596.13;1656735;85;21250;-63
2020/12/01 12:51:20;;;;;;;10.95;6.05;;;;;;;24.87;45.14;157683.69;1670789;85;21355;-65
2020/12/01 12:53:52;;;;;;;8.08;5.33;;;;;;;24.95;53.29;157706.27;1677977;84;21233;-64
2020/12/01 12:56:25;;;;;;;7.72;4.62;;;;;;;25.98;46.17;157981.16;1657335;85;21237;-63
2020/12/01 12:58:57;;;;;;;6.47;3.70;;;;;;;25.48;42.76;157847.00;1679196;84;21226;-62
2020/12/01 13:01:29;;;;;;;5.65;3.62;;;;;;;24.83;43.05;157673.06;1657069;85;22033;-65
2020/12/01 13:04:02;;;;;;;8.35;4.70;;;;;;;24.13;44.77;157487.28;1706985;83;21471;-66
2020/12/01 13:06:34;;;;;;;9.35;4.28;;;;;;;24.26;45.25;157521.78;1660915;83;21244;-64
2020/12/01 13:09:07;;;;;;;7.67;4.53;;;;;;;24.09;43.37;157476.70;1653954;86;21568;-63